| time (UTC) | temp F | wind direction | speed MPH | gust MPH | rain 1hr in | rain 24hr in | rain mn in | humidity % | barometer mb |
| 20260901013304 | 94 | 112 | 3.0 | 7.0 | 0.00 | 0.00 | 0.00 | 39 | 1011.9 |
| 20260901012306 | 95 | 147 | 5.0 | 7.0 | 0.00 | 0.00 | 0.00 | 39 | 1011.9 |
| 20260901011304 | 95 | 93 | 5.0 | 8.0 | 0.00 | 0.00 | 0.00 | 39 | 1011.9 |
| 20260901010304 | 96 | 66 | 5.0 | 8.0 | 0.00 | 0.00 | 0.00 | 37 | 1011.9 |
| 20260901005306 | 96 | 137 | 5.0 | 10.0 | 0.00 | 0.00 | 0.00 | 37 | 1011.9 |
| 20260901004304 | 96 | 130 | 5.0 | 8.0 | 0.00 | 0.00 | 0.00 | 36 | 1011.9 |
| 20260901003804 | 97 | 137 | 5.0 | 12.0 | 0.00 | 0.00 | 0.00 | 36 | 1011.9 |
| 20260901003305 | 97 | 115 | 3.0 | 7.0 | 0.00 | 0.00 | 0.00 | 36 | 1011.9 |
| 20260901002805 | 97 | 24 | 6.0 | 12.0 | 0.00 | 0.00 | 0.00 | 35 | 1011.9 |
| 20260901000313 | 98 | 126 | 6.0 | 14.0 | 0.00 | 0.00 | 0.00 | 34 | 1011.8 |
| 20260831235308 | 98 | 16 | 6.0 | 12.0 | 0.00 | 0.00 | 0.00 | 34 | 1011.7 |
| 20260831234808 | 98 | 84 | 7.0 | 15.0 | 0.00 | 0.00 | 0.00 | 34 | 1011.9 |
| 20260831234308 | 98 | 126 | 6.0 | 12.0 | 0.00 | 0.00 | 0.00 | 34 | 1011.9 |
| 20260831233808 | 98 | 110 | 3.0 | 8.0 | 0.00 | 0.00 | 0.00 | 34 | 1011.9 |
| 20260831230809 | 99 | 133 | 5.0 | 12.0 | 0.00 | 0.00 | 0.00 | 33 | 1011.7 |
| 20260831225808 | 99 | 99 | 8.0 | 13.0 | 0.00 | 0.00 | 0.00 | 32 | 1011.9 |
| 20260831225308 | 99 | 135 | 8.0 | 15.0 | 0.00 | 0.00 | 0.00 | 32 | 1011.9 |
| 20260831223309 | 100 | 87 | 6.0 | 14.0 | 0.00 | 0.00 | 0.00 | 33 | 1012.0 |
| 20260831222808 | 100 | 95 | 7.0 | 14.0 | 0.00 | 0.00 | 0.00 | 33 | 1012.0 |
| 20260831222308 | 100 | 126 | 5.0 | 13.0 | 0.00 | 0.00 | 0.00 | 32 | 1012.2 |
| 20260831215308 | 99 | 121 | 1.0 | 9.0 | 0.00 | 0.00 | 0.00 | 33 | 1012.5 |
| 20260831213808 | 100 | 102 | 6.0 | 12.0 | 0.00 | 0.00 | 0.00 | 31 | 1012.5 |
| 20260831212808 | 100 | 120 | 3.0 | 9.0 | 0.00 | 0.00 | 0.00 | 31 | 1012.5 |
| 20260831210308 | 100 | 39 | 9.0 | 14.0 | 0.00 | 0.00 | 0.00 | 32 | 1012.9 |
| 20260831205808 | 100 | 138 | 9.0 | 20.0 | 0.00 | 0.00 | 0.00 | 34 | 1012.9 |
| 20260831204808 | 100 | 92 | 5.0 | 9.0 | 0.00 | 0.00 | 0.00 | 34 | 1013.3 |
| 20260831204307 | 100 | 153 | 4.0 | 16.0 | 0.00 | 0.00 | 0.00 | 34 | 1013.3 |
| 20260831195308 | 99 | 125 | 3.0 | 12.0 | 0.00 | 0.00 | 0.00 | 34 | 1013.9 |
| 20260831194808 | 99 | 341 | 5.0 | 15.0 | 0.00 | 0.00 | 0.00 | 34 | 1014.1 |
| 20260831193808 | 100 | 206 | 7.0 | 12.0 | 0.00 | 0.00 | 0.00 | 34 | 1014.1 |
| 20260831192308 | 99 | 162 | 6.0 | 13.0 | 0.00 | 0.00 | 0.00 | 34 | 1014.2 |
| 20260831190808 | 99 | 138 | 4.0 | 9.0 | 0.00 | 0.00 | 0.00 | 36 | 1014.2 |
| 20260831190308 | 100 | 310 | 6.0 | 12.0 | 0.00 | 0.00 | 0.00 | 34 | 1014.3 |
| 20260831184807 | 99 | 65 | 6.0 | 13.0 | 0.00 | 0.00 | 0.00 | 36 | 1014.4 |
| 20260831183308 | 99 | 21 | 6.0 | 13.0 | 0.00 | 0.00 | 0.00 | 37 | 1014.9 |
| 20260831182307 | 98 | 115 | 6.0 | 14.0 | 0.00 | 0.00 | 0.00 | 38 | 1014.9 |
| 20260831181308 | 98 | 136 | 6.0 | 13.0 | 0.00 | 0.00 | 0.00 | 39 | 1014.9 |
| 20260831180807 | 98 | 24 | 9.0 | 14.0 | 0.00 | 0.00 | 0.00 | 39 | 1015.1 |
| 20260831180307 | 98 | 154 | 5.0 | 9.0 | 0.00 | 0.00 | 0.00 | 40 | 1015.1 |
| 20260831172307 | 96 | 248 | 4.0 | 9.0 | 0.00 | 0.00 | 0.00 | 45 | 1015.7 |
| 20260831171807 | 96 | 241 | 4.0 | 8.0 | 0.00 | 0.00 | 0.00 | 46 | 1015.7 |
| 20260831171307 | 96 | 198 | 5.0 | 13.0 | 0.00 | 0.00 | 0.00 | 44 | 1015.8 |
| 20260831170308 | 96 | 195 | 7.0 | 12.0 | 0.00 | 0.00 | 0.00 | 44 | 1015.8 |
| 20260831165807 | 96 | 87 | 6.0 | 10.0 | 0.00 | 0.00 | 0.00 | 45 | 1015.8 |
| 20260831164807 | 95 | 237 | 4.0 | 9.0 | 0.00 | 0.00 | 0.00 | 46 | 1015.8 |
| 20260831164307 | 95 | 192 | 5.0 | 10.0 | 0.00 | 0.00 | 0.00 | 46 | 1015.7 |
| 20260831162307 | 94 | 178 | 5.0 | 9.0 | 0.00 | 0.00 | 0.00 | 45 | 1016.0 |
| 20260831161307 | 94 | 342 | 7.0 | 12.0 | 0.00 | 0.00 | 0.00 | 46 | 1016.0 |
| 20260831160807 | 93 | 209 | 5.0 | 12.0 | 0.00 | 0.00 | 0.00 | 46 | 1016.0 |
| 20260831155806 | 93 | 236 | 7.0 | 15.0 | 0.00 | 0.00 | 0.00 | 45 | 1016.0 |
| 20260831155307 | 93 | 200 | 5.0 | 9.0 | 0.00 | 0.00 | 0.00 | 47 | 1016.0 |
| 20260831154807 | 93 | 212 | 6.0 | 12.0 | 0.00 | 0.00 | 0.00 | 47 | 1016.0 |
| 20260831154307 | 93 | 250 | 5.0 | 10.0 | 0.00 | 0.00 | 0.00 | 47 | 1015.9 |
| 20260831151807 | 91 | 219 | 5.0 | 12.0 | 0.00 | 0.00 | 0.00 | 47 | 1015.8 |
| 20260831150307 | 89 | 200 | 3.0 | 10.0 | 0.00 | 0.00 | 0.00 | 51 | 1015.6 |
| 20260831145807 | 89 | 209 | 6.0 | 14.0 | 0.00 | 0.00 | 0.00 | 53 | 1015.6 |
| 20260831144306 | 87 | 353 | 5.0 | 14.0 | 0.00 | 0.00 | 0.00 | 55 | 1015.6 |
| 20260831142306 | 86 | 199 | 4.0 | 7.0 | 0.00 | 0.00 | 0.00 | 61 | 1015.5 |
| 20260831141307 | 85 | 209 | 3.0 | 10.0 | 0.00 | 0.00 | 0.00 | 62 | 1015.5 |
| 20260831140306 | 85 | 156 | 3.0 | 9.0 | 0.00 | 0.00 | 0.00 | 64 | 1015.5 |
| 20260831135806 | 84 | 115 | 3.0 | 8.0 | 0.00 | 0.00 | 0.00 | 65 | 1015.5 |
| 20260831134807 | 84 | 205 | 3.0 | 6.0 | 0.00 | 0.00 | 0.00 | 67 | 1015.5 |
| 20260831134306 | 83 | 153 | 5.0 | 7.0 | 0.00 | 0.00 | 0.00 | 67 | 1015.4 |
| 20260831133806 | 83 | 61 | 4.0 | 8.0 | 0.00 | 0.00 | 0.00 | 68 | 1015.4 |
| 20260831133306 | 83 | 175 | 3.0 | 7.0 | 0.00 | 0.00 | 0.00 | 69 | 1015.4 |
| 20260831132806 | 83 | 179 | 5.0 | 8.0 | 0.00 | 0.00 | 0.00 | 69 | 1015.3 |
| 20260831131807 | 83 | 143 | 4.0 | 7.0 | 0.00 | 0.00 | 0.00 | 69 | 1015.0 |
| 20260831131307 | 82 | 158 | 3.0 | 6.0 | 0.00 | 0.00 | 0.00 | 69 | 1015.0 |
| 20260831130807 | 82 | 157 | 4.0 | 6.0 | 0.00 | 0.00 | 0.00 | 69 | 1014.9 |
| 20260831124806 | 82 | 135 | 4.0 | 8.0 | 0.00 | 0.00 | 0.00 | 70 | 1014.7 |
| 20260831123806 | 82 | 168 | 3.0 | 6.0 | 0.00 | 0.00 | 0.00 | 69 | 1014.3 |
| 20260831123306 | 82 | 174 | 3.0 | 7.0 | 0.00 | 0.00 | 0.00 | 69 | 1014.3 |
| 20260831122806 | 82 | 212 | 4.0 | 8.0 | 0.00 | 0.00 | 0.00 | 69 | 1014.3 |
| 20260831122307 | 82 | 210 | 4.0 | 10.0 | 0.00 | 0.00 | 0.00 | 69 | 1014.2 |
| 20260831121307 | 81 | 131 | 5.0 | 9.0 | 0.00 | 0.00 | 0.00 | 70 | 1014.1 |
| 20260831120806 | 81 | 193 | 5.0 | 9.0 | 0.00 | 0.00 | 0.00 | 70 | 1013.9 |
| 20260831120307 | 81 | 172 | 5.0 | 8.0 | 0.00 | 0.00 | 0.00 | 71 | 1013.9 |
| 20260831115806 | 81 | 193 | 4.0 | 7.0 | 0.00 | 0.00 | 0.00 | 71 | 1013.9 |
| 20260831115306 | 82 | 200 | 4.0 | 9.0 | 0.00 | 0.00 | 0.00 | 70 | 1013.9 |
| 20260831114807 | 82 | 200 | 3.0 | 8.0 | 0.00 | 0.00 | 0.00 | 70 | 1013.7 |
| 20260831114307 | 82 | 202 | 4.0 | 10.0 | 0.00 | 0.00 | 0.00 | 70 | 1013.7 |
| 20260831113807 | 82 | 193 | 5.0 | 9.0 | 0.00 | 0.00 | 0.00 | 70 | 1013.6 |
| 20260831113306 | 82 | 212 | 4.0 | 9.0 | 0.00 | 0.00 | 0.00 | 70 | 1013.6 |
| 20260831112806 | 82 | 193 | 5.0 | 10.0 | 0.00 | 0.00 | 0.00 | 69 | 1013.5 |
| 20260831112307 | 82 | 299 | 3.0 | 12.0 | 0.00 | 0.00 | 0.00 | 70 | 1013.5 |
| 20260831111306 | 82 | 200 | 4.0 | 9.0 | 0.00 | 0.00 | 0.00 | 69 | 1013.5 |
| 20260831105306 | 83 | 208 | 5.0 | 10.0 | 0.00 | 0.00 | 0.00 | 69 | 1013.4 |
| 20260831104806 | 83 | 152 | 5.0 | 10.0 | 0.00 | 0.00 | 0.00 | 68 | 1013.3 |
| 20260831103806 | 83 | 221 | 5.0 | 12.0 | 0.00 | 0.00 | 0.00 | 68 | 1013.3 |
| 20260831102805 | 83 | 1 | 5.0 | 13.0 | 0.00 | 0.00 | 0.00 | 67 | 1013.2 |
| 20260831102306 | 83 | 188 | 5.0 | 9.0 | 0.00 | 0.00 | 0.00 | 67 | 1013.2 |
| 20260831101806 | 83 | 184 | 4.0 | 8.0 | 0.00 | 0.00 | 0.00 | 67 | 1013.2 |
| 20260831101306 | 83 | 190 | 5.0 | 8.0 | 0.00 | 0.00 | 0.00 | 66 | 1013.2 |
| 20260831100306 | 83 | 202 | 5.0 | 8.0 | 0.00 | 0.00 | 0.00 | 66 | 1013.2 |
| 20260831095806 | 83 | 220 | 5.0 | 9.0 | 0.00 | 0.00 | 0.00 | 65 | 1013.2 |
| 20260831094806 | 83 | 208 | 3.0 | 10.0 | 0.00 | 0.00 | 0.00 | 64 | 1013.2 |
| 20260831092806 | 84 | 232 | 5.0 | 9.0 | 0.00 | 0.00 | 0.00 | 63 | 1012.8 |
| 20260831085806 | 85 | 199 | 6.0 | 12.0 | 0.00 | 0.00 | 0.00 | 60 | 1012.8 |
| 20260831084806 | 85 | 223 | 5.0 | 10.0 | 0.00 | 0.00 | 0.00 | 59 | 1012.8 |
| 20260831084305 | 85 | 189 | 5.0 | 9.0 | 0.00 | 0.00 | 0.00 | 59 | 1012.9 |
| 20260831082805 | 86 | 219 | 5.0 | 12.0 | 0.00 | 0.00 | 0.00 | 56 | 1012.8 |
| 20260831082307 | 86 | 238 | 5.0 | 12.0 | 0.00 | 0.00 | 0.00 | 56 | 1012.8 |
| 20260831081806 | 86 | 248 | 5.0 | 15.0 | 0.00 | 0.00 | 0.00 | 55 | 1012.8 |
| 20260831080806 | 86 | 272 | 7.0 | 13.0 | 0.00 | 0.00 | 0.00 | 54 | 1012.9 |
| 20260831080305 | 86 | 323 | 7.0 | 15.0 | 0.00 | 0.00 | 0.00 | 54 | 1012.7 |
| 20260831075805 | 86 | 283 | 7.0 | 14.0 | 0.00 | 0.00 | 0.00 | 53 | 1012.7 |
| 20260831075306 | 86 | 221 | 6.0 | 14.0 | 0.00 | 0.00 | 0.00 | 53 | 1012.7 |
| 20260831073305 | 86 | 202 | 3.0 | 8.0 | 0.00 | 0.00 | 0.00 | 53 | 1012.6 |
| 20260831072805 | 86 | 201 | 3.0 | 6.0 | 0.00 | 0.00 | 0.00 | 52 | 1012.6 |
| 20260831071805 | 87 | 169 | 3.0 | 7.0 | 0.00 | 0.00 | 0.00 | 52 | 1012.7 |
| 20260831065806 | 87 | 353 | 5.0 | 8.0 | 0.00 | 0.00 | 0.00 | 52 | 1012.7 |
| 20260831064305 | 87 | 195 | 3.0 | 5.0 | 0.00 | 0.00 | 0.00 | 53 | 1012.7 |
| 20260831063806 | 87 | 173 | 4.0 | 7.0 | 0.00 | 0.00 | 0.00 | 53 | 1012.7 |
| 20260831062306 | 87 | 197 | 3.0 | 7.0 | 0.00 | 0.00 | 0.00 | 53 | 1012.6 |
| 20260831061805 | 87 | 199 | 3.0 | 7.0 | 0.00 | 0.00 | 0.00 | 53 | 1012.6 |
| 20260831060805 | 87 | 186 | 3.0 | 5.0 | 0.00 | 0.00 | 0.00 | 52 | 1012.9 |
| 20260831060305 | 87 | 198 | 3.0 | 6.0 | 0.00 | 0.00 | 0.00 | 51 | 1012.9 |
| 20260831055805 | 88 | 183 | 3.0 | 7.0 | 0.00 | 0.00 | 0.00 | 51 | 1012.9 |
| 20260831055306 | 88 | 216 | 4.0 | 6.0 | 0.00 | 0.00 | 0.00 | 51 | 1012.9 |
| 20260831053305 | 88 | 157 | 5.0 | 9.0 | 0.00 | 0.00 | 0.00 | 50 | 1012.8 |
| 20260831052805 | 88 | 209 | 5.0 | 7.0 | 0.00 | 0.00 | 0.00 | 50 | 1012.8 |
| 20260831052307 | 88 | 225 | 4.0 | 9.0 | 0.00 | 0.00 | 0.00 | 50 | 1012.6 |
| 20260831051805 | 88 | 172 | 4.0 | 7.0 | 0.00 | 0.00 | 0.00 | 50 | 1012.6 |
| 20260831051305 | 88 | 357 | 3.0 | 7.0 | 0.00 | 0.00 | 0.00 | 49 | 1012.6 |
| 20260831050305 | 89 | 246 | 5.0 | 9.0 | 0.00 | 0.00 | 0.00 | 49 | 1012.5 |
| 20260831045306 | 89 | 357 | 4.0 | 7.0 | 0.00 | 0.00 | 0.00 | 49 | 1012.5 |
| 20260831044305 | 89 | 165 | 4.0 | 7.0 | 0.00 | 0.00 | 0.00 | 48 | 1012.6 |
| 20260831043805 | 89 | 214 | 3.0 | 7.0 | 0.00 | 0.00 | 0.00 | 48 | 1012.6 |
| 20260831042804 | 89 | 160 | 5.0 | 8.0 | 0.00 | 0.00 | 0.00 | 48 | 1012.6 |
| 20260831042307 | 89 | 41 | 6.0 | 8.0 | 0.00 | 0.00 | 0.00 | 48 | 1012.6 |
| 20260831040305 | 89 | 354 | 4.0 | 6.0 | 0.00 | 0.00 | 0.00 | 47 | 1012.5 |
| 20260831035805 | 90 | 169 | 4.0 | 7.0 | 0.00 | 0.00 | 0.00 | 47 | 1012.5 |
| 20260831035307 | 90 | 160 | 5.0 | 5.0 | 0.00 | 0.00 | 0.00 | 47 | 1012.5 |
| 20260831033805 | 90 | 155 | 3.0 | 6.0 | 0.00 | 0.00 | 0.00 | 46 | 1012.4 |
| 20260831032306 | 90 | 51 | 5.0 | 7.0 | 0.00 | 0.00 | 0.00 | 46 | 1012.3 |
| 20260831031804 | 91 | 121 | 3.0 | 6.0 | 0.00 | 0.00 | 0.00 | 46 | 1012.3 |
| 20260831030805 | 91 | 151 | 3.0 | 6.0 | 0.00 | 0.00 | 0.00 | 45 | 1012.3 |
| 20260831025805 | 91 | 119 | 4.0 | 6.0 | 0.00 | 0.00 | 0.00 | 45 | 1012.3 |
| 20260831025306 | 91 | 147 | 3.0 | 6.0 | 0.00 | 0.00 | 0.00 | 45 | 1012.2 |
| 20260831023805 | 92 | 142 | 3.0 | 5.0 | 0.00 | 0.00 | 0.00 | 44 | 1011.9 |
| 20260831023304 | 92 | 152 | 2.0 | 5.0 | 0.00 | 0.00 | 0.00 | 44 | 1011.9 |
| 20260831020304 | 93 | 29 | 5.0 | 8.0 | 0.00 | 0.00 | 0.00 | 42 | 1011.5 |
| 20260831015805 | 93 | 113 | 4.0 | 7.0 | 0.00 | 0.00 | 0.00 | 42 | 1011.2 |